FMMI

Details ICAO FMMI (TNR)
Name IVATO
Region Comoros, Mayotte, Réunion and Madagascar
Timezone Indian/Antananarivo (UTC+3.0)
Plans Departing 349
Arriving 283
Stats Elevation 4,198 ft / 1,280 m (AMSL)
Location -18.796950° 47.478806°
Runways 1
Magnetic Variation 15.175° W
Sunrise 2018-06-25 03:23:52 UTC / 2018-06-25 06:23:52 Local
Sunset 2018-06-25 14:23:52 UTC / 2018-06-25 17:23:52 Local
Advertisement - Login to hide

Runways

ID Width Length Bearing (true) Bearing (mag) Surface Threshold Offset Overrun Length
11 148 ft / 45 m 10,167 ft / 3,099 m 98.92° 114.09° Asphalt 0 ft / 0 m 90 ft / 27 m
29 148 ft / 45 m 10,167 ft / 3,099 m 278.91° 294.08° Asphalt 0 ft / 0 m 90 ft / 27 m

Approach Navaids

Runway Type Ident Frequency Range Bearing (true) Bearing (mag) Slope Elevation
11 Localiser IO 109.50 MHz 18 nm / 33 km 98.89° 114.06° - 4,125 ft / 1,257 m (AMSL)
11 Glidescope IO 109.50 MHz 10 nm / 19 km 98.91° 114.09° 3.00° 4,198 ft / 1,280 m (AMSL)

Map

Weather


0- 5 10 15 20 25 30 35+ Temperature / ° C

Clouds and Precipitation
Forecast for 2018-06-25 12:00 UTC. Updated 2 hours ago

Ground ~20,000 ft ~40,000 ft Winds

METAR

FMMI 251100Z 14009KT 100V190 9999 BKN020 20/10 Q1022 NOSIG

TAF

TAF FMMI 250500Z 2506/2612 12007KT 9999 FEW017 BKN020= TAF FMEE 250500Z 2506/2612 14015KT 9999 FEW035 BECMG 2509/2511 10020G30KT BECMG 2513/2515 14012KT

Frequencies

Tower 118.10 MHz TWR
Approach 126.70 MHz APP
Warning: Do not use this data for real-world aviation or navigation. No guarantee of current accuracy is given.